Time;durP1;ratioP1;P1;durP2;ratioP2;P2;SDS_P1;SDS_P2;PMS_P1;PMS_P2;Temp;Humidity;BMP_temperature;BMP_pressure;BME280_temperature;BME280_humidity;BME280_pressure;Samples;Min_cycle;Max_cycle;Signal;HPM_P1;HPM_P2
2021/05/25 00:00:34;;;;;;;1.14;0.40;;;;;;;6.91;85.17;99083.91;2031074;79;20717;-73
2021/05/25 00:03:36;;;;;;;1.92;0.30;;;;;;;6.93;85.31;99084.78;2027239;79;20436;-73
2021/05/25 00:06:39;;;;;;;1.31;0.47;;;;;;;6.94;85.25;99089.94;2025921;79;20340;-74
2021/05/25 00:09:42;;;;;;;0.76;0.60;;;;;;;6.95;85.37;99081.34;2024302;79;21205;-76
2021/05/25 00:12:44;;;;;;;3.16;0.88;;;;;;;6.97;85.33;99082.22;2023550;79;20342;-77
2021/05/25 00:15:52;;;;;;;1.75;0.70;;;;;;;7.01;85.32;99083.13;2026314;79;22258;-77
2021/05/25 00:18:55;;;;;;;1.49;0.50;;;;;;;7.04;85.34;99090.03;2030474;79;20347;-77
2021/05/25 00:21:57;;;;;;;2.05;0.50;;;;;;;7.05;85.18;99089.16;2031412;79;20343;-78
2021/05/25 00:25:00;;;;;;;1.48;0.50;;;;;;;7.04;85.16;99085.72;2032494;79;20331;-77
2021/05/25 00:28:03;;;;;;;0.65;0.40;;;;;;;7.01;84.76;99085.72;2032997;79;20329;-76
2021/05/25 00:31:06;;;;;;;2.59;0.81;;;;;;;6.96;84.48;99082.22;2029702;77;21872;-77
2021/05/25 00:34:08;;;;;;;0.91;0.39;;;;;;;6.94;84.25;99083.94;2027672;79;21221;-77
2021/05/25 00:37:11;;;;;;;1.90;0.30;;;;;;;6.89;84.27;99083.91;2027966;79;20332;-77
2021/05/25 00:40:15;;;;;;;0.55;0.29;;;;;;;6.84;84.45;99088.19;2027000;80;20344;-77
2021/05/25 00:43:17;;;;;;;0.79;0.40;;;;;;;6.83;84.42;99086.47;2029834;79;20406;-77
2021/05/25 00:46:20;;;;;;;2.10;0.68;;;;;;;6.79;84.29;99079.53;2028544;76;27126;-77
2021/05/25 00:49:22;;;;;;;2.63;0.95;;;;;;;6.78;84.45;99087.28;2032631;79;20313;-77
2021/05/25 00:52:25;;;;;;;1.29;0.73;;;;;;;6.78;84.55;99092.44;2028368;79;20301;-77
2021/05/25 00:55:31;;;;;;;2.28;0.74;;;;;;;6.77;84.59;99085.56;2031977;79;20341;-77
2021/05/25 00:58:35;;;;;;;1.13;0.43;;;;;;;6.77;84.53;99088.13;2032425;79;20327;-77
2021/05/25 01:01:38;;;;;;;3.41;0.89;;;;;;;6.78;84.63;99088.13;2029081;76;25367;-77
2021/05/25 01:04:40;;;;;;;0.88;0.50;;;;;;;6.78;84.65;99082.13;2028132;79;20363;-76
2021/05/25 01:07:43;;;;;;;2.34;0.50;;;;;;;6.79;84.69;99076.97;2031405;79;20342;-76
2021/05/25 01:10:55;;;;;;;1.36;0.40;;;;;;;6.81;84.57;99085.56;2027647;79;20318;-76
2021/05/25 01:13:59;;;;;;;0.31;0.30;;;;;;;6.79;84.44;99081.25;2028221;79;20423;-76
2021/05/25 01:17:01;;;;;;;1.36;0.22;;;;;;;6.74;84.27;99081.25;2027774;77;24428;-77
2021/05/25 01:20:06;;;;;;;1.27;0.47;;;;;;;6.71;84.18;99090.69;2028025;79;21203;-76
2021/05/25 01:23:10;;;;;;;1.33;0.56;;;;;;;6.68;84.11;99083.78;2027472;79;20825;-77
2021/05/25 01:26:15;;;;;;;1.83;0.60;;;;;;;6.69;84.25;99084.66;2027033;79;20326;-77
2021/05/25 01:29:17;;;;;;;3.41;0.73;;;;;;;6.69;84.13;99084.66;2028024;79;20348;-77
2021/05/25 01:32:20;;;;;;;1.56;0.49;;;;;;;6.68;84.36;99088.09;2031079;76;21151;-77
2021/05/25 01:35:24;;;;;;;1.85;0.50;;;;;;;6.66;84.42;99090.66;2032621;79;21123;-77
2021/05/25 01:38:26;;;;;;;0.74;0.35;;;;;;;6.69;84.37;99098.44;2033083;79;20305;-77
2021/05/25 01:41:29;;;;;;;0.45;0.30;;;;;;;6.70;84.51;99087.25;2033153;79;20321;-77
2021/05/25 01:44:36;;;;;;;1.23;0.31;;;;;;;6.75;84.50;99089.84;2033765;79;20335;-77
2021/05/25 01:47:39;;;;;;;1.16;0.30;;;;;;;6.75;84.23;99095.88;2027120;76;22427;-77
2021/05/25 01:50:41;;;;;;;0.85;0.30;;;;;;;6.77;84.34;99091.56;2027786;79;20403;-77
2021/05/25 01:53:44;;;;;;;0.99;0.41;;;;;;;6.75;84.04;99092.44;2027451;79;20314;-77
2021/05/25 01:56:47;;;;;;;0.28;0.20;;;;;;;6.73;84.05;99086.41;2027096;79;20315;-77
2021/05/25 01:59:53;;;;;;;1.26;0.70;;;;;;;6.73;84.06;99104.47;2028127;79;20312;-77
2021/05/25 02:02:56;;;;;;;1.02;0.30;;;;;;;6.78;84.11;99095.03;2032888;76;20758;-77
2021/05/25 02:05:58;;;;;;;0.82;0.30;;;;;;;6.81;84.08;99095.91;2034297;79;20741;-78
2021/05/25 02:09:02;;;;;;;2.67;0.38;;;;;;;6.83;84.23;99104.53;2034223;79;20310;-76
2021/05/25 02:12:05;;;;;;;3.40;0.80;;;;;;;6.87;84.18;99102.84;2034475;79;21052;-76
2021/05/25 02:15:08;;;;;;;0.69;0.32;;;;;;;6.90;84.32;99103.72;2036346;79;20398;-77
2021/05/25 02:18:14;;;;;;;1.45;0.54;;;;;;;6.93;84.15;99101.13;2029063;77;22394;-77
2021/05/25 02:21:20;;;;;;;0.93;0.30;;;;;;;6.96;83.53;99101.16;2029077;79;20331;-76
2021/05/25 02:24:22;;;;;;;3.09;0.30;;;;;;;6.98;83.24;99096.00;2029887;79;20310;-76
2021/05/25 02:27:25;;;;;;;1.54;0.40;;;;;;;7.00;83.12;99102.03;2028892;79;20833;-76
2021/05/25 02:30:28;;;;;;;3.04;1.00;;;;;;;7.03;82.91;99101.19;2029717;76;22356;-77
2021/05/25 02:33:31;;;;;;;1.15;0.59;;;;;;;7.04;82.69;99108.94;2034661;79;20310;-76
2021/05/25 02:36:34;;;;;;;2.24;0.54;;;;;;;7.06;82.78;99099.50;2034063;79;20334;-77
2021/05/25 02:39:36;;;;;;;2.26;0.68;;;;;;;7.09;82.85;99101.22;2034457;79;20321;-76
2021/05/25 02:42:39;;;;;;;1.27;0.45;;;;;;;7.13;82.60;99093.47;2034923;79;20714;-76
2021/05/25 02:45:42;;;;;;;0.90;0.40;;;;;;;7.15;82.45;99093.50;2032180;77;23581;-76
2021/05/25 02:48:44;;;;;;;0.85;0.34;;;;;;;7.18;82.44;99091.81;2028604;79;20323;-75
2021/05/25 02:51:47;;;;;;;1.54;0.44;;;;;;;7.19;82.18;99092.69;2028797;79;20998;-75
2021/05/25 02:54:50;;;;;;;2.50;0.40;;;;;;;7.16;81.97;99098.66;2028368;79;20371;-77
2021/05/25 02:57:53;;;;;;;1.34;0.30;;;;;;;7.20;82.06;99096.97;2029276;79;21097;-75
2021/05/25 03:00:55;;;;;;;2.67;0.40;;;;;;;7.21;82.02;99106.44;2030130;76;27440;-75
2021/05/25 03:03:58;;;;;;;2.09;0.63;;;;;;;7.21;81.52;99106.44;2033520;79;20452;-76
2021/05/25 03:07:01;;;;;;;2.54;0.54;;;;;;;7.22;81.71;99103.00;2033134;79;20514;-75
2021/05/25 03:10:10;;;;;;;3.15;0.60;;;;;;;7.20;81.52;99104.72;2033729;79;20695;-75
2021/05/25 03:13:13;;;;;;;2.61;0.90;;;;;;;7.21;81.96;99109.91;2032901;79;20335;-76
2021/05/25 03:16:16;;;;;;;2.41;0.88;;;;;;;7.23;81.92;99099.56;2029724;77;28365;-76
2021/05/25 03:19:19;;;;;;;4.07;0.90;;;;;;;7.22;82.11;99105.59;2027897;79;21028;-76
2021/05/25 03:22:21;;;;;;;2.65;0.80;;;;;;;7.23;82.47;99112.47;2027251;79;20723;-76
2021/05/25 03:25:25;;;;;;;0.86;0.45;;;;;;;7.22;82.46;99113.34;2027287;79;20340;-75
2021/05/25 03:28:27;;;;;;;2.51;0.60;;;;;;;7.21;82.46;99109.91;2027466;79;20356;-76
2021/05/25 03:31:30;;;;;;;2.36;0.60;;;;;;;7.22;82.75;99111.63;2029412;76;21543;-75
2021/05/25 03:34:33;;;;;;;1.16;0.34;;;;;;;7.21;83.09;99122.81;2032974;79;20386;-74
2021/05/25 03:37:37;;;;;;;0.91;0.40;;;;;;;7.19;83.58;99114.19;2036031;79;20534;-73
2021/05/25 03:40:39;;;;;;;2.20;0.38;;;;;;;7.18;84.14;99124.47;2032606;79;20321;-74
2021/05/25 03:43:42;;;;;;;1.61;0.44;;;;;;;7.14;84.54;99123.59;2032936;79;20317;-74
2021/05/25 03:46:45;;;;;;;2.24;0.39;;;;;;;7.16;84.76;99126.19;2028855;76;20356;-74
2021/05/25 03:49:47;;;;;;;0.52;0.29;;;;;;;7.13;85.07;99127.03;2027948;79;20964;-76
2021/05/25 03:52:53;;;;;;;0.82;0.39;;;;;;;7.15;85.41;99135.66;2028333;79;20379;-75
2021/05/25 03:56:15;;;;;;;1.10;0.30;;;;;;;7.14;85.20;99131.34;2026493;79;20720;-76
2021/05/25 03:59:18;;;;;;;0.65;0.25;;;;;;;7.13;85.36;99133.94;2027384;79;20412;-76
2021/05/25 04:02:24;;;;;;;3.76;0.82;;;;;;;7.11;85.57;99141.66;2026647;76;21387;-76
2021/05/25 04:05:26;;;;;;;3.13;0.29;;;;;;;7.11;85.63;99135.66;2027147;79;20726;-76
2021/05/25 04:08:29;;;;;;;2.63;0.30;;;;;;;7.12;85.86;99139.94;2027088;79;20419;-76
2021/05/25 04:11:32;;;;;;;1.63;0.40;;;;;;;7.16;85.85;99142.56;2027459;79;20328;-76
2021/05/25 04:14:35;;;;;;;1.54;0.35;;;;;;;7.16;85.75;99146.84;2027030;79;20318;-77
2021/05/25 04:17:40;;;;;;;0.91;0.29;;;;;;;7.14;85.80;99139.09;2031095;77;25378;-76
2021/05/25 04:20:43;;;;;;;0.63;0.30;;;;;;;7.14;85.79;99140.81;2032848;79;20951;-74
2021/05/25 04:23:46;;;;;;;1.27;0.35;;;;;;;7.12;85.35;99143.41;2032825;79;20359;-77
2021/05/25 04:26:49;;;;;;;0.21;0.21;;;;;;;7.15;85.28;99139.97;2032413;79;20378;-77
2021/05/25 04:29:51;;;;;;;1.02;0.50;;;;;;;7.14;85.37;99157.16;2032673;79;20378;-76
2021/05/25 04:32:54;;;;;;;3.42;0.40;;;;;;;7.14;85.28;99158.91;2026688;76;20582;-75
2021/05/25 04:35:57;;;;;;;1.59;0.45;;;;;;;7.15;85.36;99171.81;2027100;79;20911;-75
2021/05/25 04:38:59;;;;;;;1.34;0.68;;;;;;;7.14;85.43;99172.66;2027554;79;20386;-75
2021/05/25 04:42:02;;;;;;;2.42;0.30;;;;;;;7.13;85.67;99181.25;2026801;79;20394;-74
2021/05/25 04:45:07;;;;;;;2.25;0.30;;;;;;;7.14;85.80;99179.53;2026773;79;21021;-74
2021/05/25 04:48:10;;;;;;;2.59;0.50;;;;;;;7.13;86.01;99194.19;2031787;76;20339;-73
2021/05/25 04:51:13;;;;;;;1.16;0.40;;;;;;;7.15;86.29;99194.19;2032639;79;21011;-73
2021/05/25 04:54:16;;;;;;;1.54;0.30;;;;;;;7.14;86.56;99198.47;2032866;79;20442;-74
2021/05/25 04:57:18;;;;;;;2.17;0.44;;;;;;;7.16;86.79;99201.06;2032997;79;20341;-73
2021/05/25 05:00:26;;;;;;;2.00;0.40;;;;;;;7.15;87.06;99204.50;2030951;77;20383;-73
2021/05/25 05:03:29;;;;;;;1.92;0.49;;;;;;;7.14;87.36;99203.66;2027864;80;20788;-73
2021/05/25 05:06:31;;;;;;;3.13;0.44;;;;;;;7.16;87.61;99208.81;2026165;80;20318;-73
2021/05/25 05:09:34;;;;;;;6.81;1.13;;;;;;;7.18;87.71;99209.69;2026943;79;21234;-73
2021/05/25 05:12:37;;;;;;;1.06;0.40;;;;;;;7.19;87.59;99212.31;2027756;80;21009;-71
2021/05/25 05:15:40;;;;;;;0.71;0.30;;;;;;;7.13;87.38;99207.09;2026850;76;22252;-72
2021/05/25 05:18:42;;;;;;;1.15;0.40;;;;;;;7.12;87.50;99212.25;2031957;79;20345;-73
2021/05/25 05:21:45;;;;;;;0.80;0.40;;;;;;;7.10;87.71;99211.38;2032054;79;20305;-73
2021/05/25 05:24:48;;;;;;;2.06;0.40;;;;;;;7.08;87.82;99229.44;2033272;79;20318;-73
2021/05/25 05:27:51;;;;;;;2.10;0.40;;;;;;;7.10;87.94;99225.16;2031683;79;20714;-73
2021/05/25 05:30:54;;;;;;;0.79;0.30;;;;;;;7.18;88.11;99223.50;2029610;78;22363;-73
2021/05/25 05:33:57;;;;;;;1.27;0.40;;;;;;;7.18;87.85;99230.34;2027026;80;21001;-73
2021/05/25 05:37:00;;;;;;;1.20;0.34;;;;;;;7.18;87.48;99232.94;2026937;80;20365;-74
2021/05/25 05:40:05;;;;;;;1.19;0.20;;;;;;;7.20;87.50;99239.84;2027250;80;21249;-73
2021/05/25 05:43:25;;;;;;;4.06;0.30;;;;;;;7.20;87.34;99228.66;2026506;79;20859;-73
2021/05/25 05:46:27;;;;;;;2.01;0.20;;;;;;;7.18;87.46;99238.09;2026137;77;22366;-74
2021/05/25 05:49:30;;;;;;;1.10;0.40;;;;;;;7.24;87.70;99239.00;2027869;79;20338;-74
2021/05/25 05:52:33;;;;;;;0.80;0.80;;;;;;;7.23;87.64;99247.63;2028150;79;20299;-74
2021/05/25 05:55:37;;;;;;;2.39;0.30;;;;;;;7.26;87.75;99249.34;2028586;79;20326;-74
2021/05/25 05:58:39;;;;;;;0.85;0.54;;;;;;;7.24;87.76;99251.94;2027666;79;20721;-73
2021/05/25 06:01:42;;;;;;;2.05;0.30;;;;;;;7.24;87.96;99259.66;2029878;77;23516;-73
2021/05/25 06:04:45;;;;;;;1.76;0.30;;;;;;;7.30;88.07;99268.31;2032929;79;20294;-73
2021/05/25 06:07:47;;;;;;;0.61;0.30;;;;;;;7.33;88.28;99271.75;2033071;79;20302;-72
2021/05/25 06:10:51;;;;;;;0.91;0.64;;;;;;;7.42;88.24;99278.72;2032917;79;20445;-72
2021/05/25 06:13:54;;;;;;;1.41;0.30;;;;;;;7.41;87.89;99271.84;2032581;79;20322;-72
2021/05/25 06:16:59;;;;;;;0.47;0.20;;;;;;;7.41;87.83;99277.88;2027540;77;22098;-73
2021/05/25 06:20:02;;;;;;;1.04;0.20;;;;;;;7.42;87.80;99281.31;2027105;79;20334;-72
2021/05/25 06:23:04;;;;;;;3.25;0.30;;;;;;;7.37;87.90;99283.88;2027885;79;20346;-72
2021/05/25 06:26:07;;;;;;;1.75;0.30;;;;;;;7.41;87.91;99287.34;2027359;79;20329;-72
2021/05/25 06:29:10;;;;;;;0.60;0.30;;;;;;;7.43;87.93;99285.63;2027961;79;20343;-73
2021/05/25 06:32:13;;;;;;;0.49;0.20;;;;;;;7.43;87.80;99293.38;2030669;76;21181;-74
2021/05/25 06:35:16;;;;;;;0.77;0.20;;;;;;;7.39;87.63;99302.81;2033029;79;20298;-73
2021/05/25 06:38:19;;;;;;;1.34;0.20;;;;;;;7.35;87.70;99298.47;2033011;79;20333;-72
2021/05/25 06:41:21;;;;;;;1.89;0.21;;;;;;;7.35;87.70;99295.88;2032585;79;20689;-72
2021/05/25 06:44:24;;;;;;;1.77;0.20;;;;;;;7.40;87.74;99311.44;2033055;79;20383;-72
2021/05/25 06:47:27;;;;;;;0.73;0.20;;;;;;;7.41;87.76;99308.00;2028073;77;20327;-72
2021/05/25 06:50:29;;;;;;;1.48;0.20;;;;;;;7.42;87.50;99314.88;2027456;79;20424;-75
2021/05/25 06:53:36;;;;;;;0.73;0.20;;;;;;;7.45;87.42;99320.06;2027563;79;20377;-74
2021/05/25 06:56:39;;;;;;;0.76;0.30;;;;;;;7.49;87.29;99333.00;2027504;79;20320;-72
2021/05/25 06:59:41;;;;;;;0.51;0.20;;;;;;;7.51;87.08;99333.88;2027498;79;20839;-73
2021/05/25 07:02:44;;;;;;;0.84;0.20;;;;;;;7.56;87.39;99337.38;2031993;76;21048;-75
2021/05/25 07:05:47;;;;;;;0.82;0.20;;;;;;;7.50;86.90;99332.16;2032563;79;20315;-74
2021/05/25 07:08:49;;;;;;;0.47;0.24;;;;;;;7.50;87.12;99333.88;2032586;79;20301;-73
2021/05/25 07:11:52;;;;;;;1.77;0.20;;;;;;;7.47;87.00;99347.63;2032476;79;20853;-74
2021/05/25 07:14:55;;;;;;;1.21;0.22;;;;;;;7.47;87.14;99350.22;2033408;79;20754;-74
2021/05/25 07:17:57;;;;;;;0.75;0.20;;;;;;;7.60;87.61;99348.59;2026586;77;22049;-76
2021/05/25 07:21:00;;;;;;;1.34;0.10;;;;;;;7.76;87.81;99357.31;2027320;79;20783;-74
2021/05/25 07:24:06;;;;;;;1.45;0.25;;;;;;;7.92;87.35;99358.28;2027952;79;20355;-74
2021/05/25 07:27:09;;;;;;;0.20;0.14;;;;;;;7.99;86.97;99354.84;2027004;79;20307;-75
2021/05/25 07:30:12;;;;;;;0.54;0.30;;;;;;;7.97;86.61;99362.63;2027562;79;20311;-73
2021/05/25 07:33:15;;;;;;;2.69;0.20;;;;;;;8.01;86.58;99364.34;2032011;76;22476;-73
2021/05/25 07:36:18;;;;;;;0.50;0.22;;;;;;;8.07;86.85;99369.53;2033004;79;20309;-74
2021/05/25 07:39:20;;;;;;;2.38;0.32;;;;;;;8.15;86.70;99377.34;2028385;79;20367;-74
2021/05/25 07:42:23;;;;;;;0.46;0.30;;;;;;;8.28;86.31;99373.97;2032662;79;20355;-76
2021/05/25 07:45:26;;;;;;;1.30;0.30;;;;;;;8.46;86.42;99381.00;2031653;77;20915;-75
2021/05/25 07:48:28;;;;;;;1.09;0.35;;;;;;;8.55;85.59;99382.72;2027586;79;20303;-76
2021/05/25 07:51:31;;;;;;;0.50;0.28;;;;;;;8.60;85.42;99394.81;2026751;79;20378;-75
2021/05/25 07:54:34;;;;;;;3.46;0.49;;;;;;;8.62;84.85;99395.72;2026974;79;20287;-75
2021/05/25 07:57:40;;;;;;;2.97;0.38;;;;;;;8.68;84.52;99392.28;2027824;79;20448;-76
2021/05/25 08:00:44;;;;;;;0.89;0.50;;;;;;;8.82;84.86;99395.78;2027619;77;22943;-77
2021/05/25 08:03:46;;;;;;;1.96;0.46;;;;;;;8.84;83.60;99393.19;2032395;79;20322;-76
2021/05/25 08:06:49;;;;;;;2.74;0.66;;;;;;;8.80;83.38;99407.84;2032359;79;20197;-76
2021/05/25 08:09:52;;;;;;;3.26;0.68;;;;;;;8.77;83.91;99403.50;2032897;79;20318;-77
2021/05/25 08:12:54;;;;;;;3.42;1.04;;;;;;;8.75;83.79;99406.94;2033844;79;20660;-77
2021/05/25 08:15:57;;;;;;;3.08;0.36;;;;;;;8.70;83.40;99413.84;2030536;77;20721;-77
2021/05/25 08:22:11;;;;;;;2.33;0.40;;;;;;;8.62;83.81;99428.50;2030142;79;20310;-80
2021/05/25 08:25:19;;;;;;;2.40;0.32;;;;;;;8.62;84.31;99429.34;2033824;79;20223;-80
2021/05/25 08:28:22;;;;;;;2.13;0.60;;;;;;;8.64;84.34;99439.72;2030699;79;20398;-80
2021/05/25 08:31:27;;;;;;;3.20;0.57;;;;;;;8.66;84.45;99446.63;2031415;76;21173;-80
2021/05/25 08:34:31;;;;;;;1.52;0.50;;;;;;;8.73;84.87;99442.31;2037471;79;20173;-82
2021/05/25 08:37:34;;;;;;;2.08;0.91;;;;;;;8.76;84.96;99461.31;2040925;79;20317;-81
2021/05/25 08:40:39;;;;;;;1.94;0.71;;;;;;;8.79;84.80;99461.31;2039899;79;20446;-82
2021/05/25 08:43:41;;;;;;;3.74;0.50;;;;;;;8.82;84.93;99480.34;2036350;79;20358;-83
2021/05/25 08:46:46;;;;;;;2.80;0.49;;;;;;;8.92;85.22;99482.09;2038431;79;22779;-80
2021/05/25 08:49:50;;;;;;;2.92;0.54;;;;;;;8.97;85.11;99476.06;2035991;79;20349;-81
2021/05/25 08:53:00;;;;;;;4.13;0.60;;;;;;;9.01;84.69;99471.78;2038437;79;20169;-82
2021/05/25 08:56:05;;;;;;;1.13;0.38;;;;;;;8.94;84.87;99475.19;2042553;79;20411;-81
2021/05/25 08:59:08;;;;;;;1.59;0.54;;;;;;;8.85;84.73;99488.97;2035990;79;20187;-80
2021/05/25 09:02:13;;;;;;;3.84;0.50;;;;;;;8.90;85.06;99491.59;2028958;77;21197;-79
2021/05/25 09:05:18;;;;;;;2.70;0.56;;;;;;;8.97;85.38;99491.59;2028101;80;20279;-80
2021/05/25 09:08:21;;;;;;;5.99;0.75;;;;;;;9.06;85.48;99491.66;2027587;80;20311;-80
2021/05/25 09:11:24;;;;;;;3.54;0.60;;;;;;;9.16;85.33;99491.69;2036975;80;20323;-82
2021/05/25 09:14:28;;;;;;;2.01;0.57;;;;;;;9.22;85.07;99494.28;2125578;69;20626;-75
2021/05/25 09:17:31;;;;;;;3.09;0.70;;;;;;;9.22;84.51;99492.56;2025916;77;34247;-76
2021/05/25 09:20:52;;;;;;;2.08;0.55;;;;;;;9.24;84.50;99492.56;2026926;79;20220;-76
2021/05/25 09:23:55;;;;;;;2.28;0.76;;;;;;;9.20;84.19;99490.81;2027495;79;20167;-74
2021/05/25 09:26:59;;;;;;;2.79;0.60;;;;;;;9.18;84.51;99500.31;2027501;79;20263;-75
2021/05/25 09:30:09;;;;;;;4.94;0.79;;;;;;;9.11;84.10;99496.84;2027085;79;20155;-75
2021/05/25 09:33:12;;;;;;;4.41;0.61;;;;;;;9.20;84.72;99498.59;2027610;77;22354;-74
2021/05/25 09:36:15;;;;;;;4.07;0.57;;;;;;;9.24;84.04;99502.94;2027316;79;20194;-73
2021/05/25 09:39:17;;;;;;;4.71;0.80;;;;;;;9.45;84.22;99513.34;2028746;79;20266;-77
2021/05/25 09:42:20;;;;;;;5.81;1.10;;;;;;;9.60;83.41;99509.91;2027451;79;20155;-78
2021/05/25 09:45:22;;;;;;;6.10;1.10;;;;;;;9.75;83.60;99515.13;2026382;76;23982;-78
2021/05/25 09:48:31;;;;;;;4.63;0.55;;;;;;;9.90;83.24;99522.03;2027573;79;20170;-77
2021/05/25 09:51:34;;;;;;;6.05;0.61;;;;;;;9.97;83.14;99529.81;2027479;79;20212;-77
2021/05/25 09:57:49;;;;;;;6.40;0.70;;;;;;;9.86;81.94;99538.44;2227717;69;20291;-84
2021/05/25 10:04:16;;;;;;;5.04;0.70;;;;;;;9.82;82.23;99536.72;2137508;70;20177;-75
2021/05/25 10:07:19;;;;;;;4.54;0.96;;;;;;;9.96;82.46;99540.19;2012532;80;20665;-75
2021/05/25 10:10:22;;;;;;;2.67;0.63;;;;;;;10.50;83.96;99546.25;2011267;80;20250;-75
2021/05/25 10:13:26;;;;;;;3.83;0.68;;;;;;;11.24;83.67;99539.94;2011879;80;20188;-77
2021/05/25 10:16:33;;;;;;;2.25;0.65;;;;;;;12.06;80.29;99546.41;2008645;78;23036;-76
2021/05/25 10:19:39;;;;;;;3.47;0.68;;;;;;;12.74;76.91;99531.84;2006054;80;20201;-76
2021/05/25 10:22:42;;;;;;;5.13;0.60;;;;;;;13.10;72.55;99533.16;2006996;80;20291;-75
2021/05/25 10:25:48;;;;;;;5.36;0.70;;;;;;;13.58;72.56;99525.63;2006871;80;20200;-76
2021/05/25 10:28:53;;;;;;;2.83;0.51;;;;;;;14.00;68.88;99520.63;2007039;80;20193;-77
2021/05/25 10:32:00;;;;;;;2.71;0.56;;;;;;;14.15;66.91;99522.97;2005316;78;23258;-76
2021/05/25 10:35:03;;;;;;;5.75;0.90;;;;;;;13.87;65.93;99535.63;2095184;70;20259;-76
2021/05/25 10:38:07;;;;;;;4.34;0.76;;;;;;;13.38;63.03;99546.75;2007094;80;20185;-77
2021/05/25 10:41:23;;;;;;;2.86;0.76;;;;;;;13.22;64.08;99540.00;2006599;80;20169;-77
2021/05/25 10:44:50;;;;;;;3.41;0.66;;;;;;;13.10;64.94;99546.19;2006927;80;20218;-77
2021/05/25 10:47:59;;;;;;;3.20;0.82;;;;;;;13.04;66.17;99548.88;1995192;78;25241;-79
2021/05/25 10:51:16;;;;;;;6.10;0.94;;;;;;;13.01;64.92;99538.50;2028839;70;20150;-84
2021/05/25 11:01:54;;;;;;;6.59;0.69;;;;;;;13.53;62.98;99528.28;2011716;71;31556;-76
2021/05/25 11:04:57;;;;;;;2.47;0.65;;;;;;;13.52;62.31;99542.22;2005573;80;20197;-75
2021/05/25 11:08:11;;;;;;;2.22;0.44;;;;;;;13.67;61.66;99537.69;2006472;80;20198;-76
2021/05/25 11:11:25;;;;;;;2.01;0.46;;;;;;;13.70;61.08;99546.31;2006291;80;20247;-76
2021/05/25 11:14:29;;;;;;;1.96;0.59;;;;;;;14.17;61.19;99535.13;2005963;80;20201;-75
2021/05/25 11:17:33;;;;;;;3.06;0.60;;;;;;;14.73;55.41;99527.22;2004841;78;20282;-74
2021/05/25 11:20:53;;;;;;;2.85;0.68;;;;;;;14.95;56.47;99546.81;2005599;80;20687;-76
2021/05/25 11:23:57;;;;;;;1.99;0.44;;;;;;;14.95;53.40;99538.97;2005702;80;20201;-75
2021/05/25 11:27:06;;;;;;;5.26;0.73;;;;;;;14.80;52.33;99527.06;2006024;80;20863;-75
2021/05/25 11:30:23;;;;;;;1.48;0.47;;;;;;;14.96;53.82;99537.22;2006174;80;20181;-75
2021/05/25 11:33:32;;;;;;;3.20;0.82;;;;;;;15.08;52.57;99526.50;2018377;80;20298;-76
2021/05/25 11:36:35;;;;;;;2.10;0.50;;;;;;;14.99;52.20;99537.16;2016483;80;20217;-76
2021/05/25 11:39:38;;;;;;;2.60;0.46;;;;;;;15.05;53.99;99532.66;2017234;80;20356;-82
2021/05/25 11:46:05;;;;;;;2.44;0.55;;;;;;;14.79;53.11;99555.84;2037961;69;177256;-83
2021/05/25 11:49:12;;;;;;;5.07;1.26;;;;;;;14.85;53.04;99555.72;2020324;80;20178;-82
2021/05/25 11:52:31;;;;;;;2.05;0.70;;;;;;;15.30;54.87;99555.72;2019844;80;20177;-81
2021/05/25 11:55:35;;;;;;;1.64;0.54;;;;;;;15.54;51.92;99555.16;2021285;80;20217;-82
2021/05/25 11:58:38;;;;;;;4.14;0.76;;;;;;;15.38;50.92;99559.88;2019477;80;20226;-82
2021/05/25 12:05:15;;;;;;;6.45;0.80;;;;;;;16.02;48.36;99534.03;2036124;70;20205;-81
2021/05/25 12:08:19;;;;;;;3.65;0.50;;;;;;;16.06;50.35;99534.81;2016992;80;20169;-83
2021/05/25 12:11:36;;;;;;;1.08;0.39;;;;;;;15.97;49.80;99534.13;2019286;80;20265;-81
2021/05/25 12:14:40;;;;;;;1.60;0.41;;;;;;;15.65;50.14;99534.91;2025412;80;20200;-83
2021/05/25 12:17:46;;;;;;;3.09;0.40;;;;;;;15.24;49.89;99538.38;2001772;78;46409;-73
2021/05/25 12:20:54;;;;;;;2.09;0.40;;;;;;;14.85;51.76;99536.56;2006327;80;20190;-73
2021/05/25 12:23:57;;;;;;;3.70;0.50;;;;;;;14.80;51.49;99529.66;2009921;80;20252;-74
2021/05/25 12:27:00;;;;;;;2.71;0.64;;;;;;;15.41;52.30;99541.47;2006877;80;20270;-73
2021/05/25 12:30:03;;;;;;;1.41;0.28;;;;;;;15.96;47.08;99526.31;2002781;80;20161;-73
2021/05/25 12:33:06;;;;;;;2.49;0.30;;;;;;;16.34;47.16;99546.34;2006746;78;20185;-73
2021/05/25 12:36:24;;;;;;;1.52;0.30;;;;;;;16.73;46.65;99525.25;2006635;80;20180;-73
2021/05/25 12:39:39;;;;;;;3.70;0.36;;;;;;;16.92;44.93;99524.69;2007084;80;20684;-74
2021/05/25 12:42:42;;;;;;;3.24;0.40;;;;;;;17.01;44.84;99539.31;2006580;80;20177;-74
2021/05/25 12:45:46;;;;;;;1.91;0.45;;;;;;;16.79;44.13;99528.56;2005291;78;23304;-74
2021/05/25 12:48:49;;;;;;;3.34;0.52;;;;;;;17.01;47.20;99525.34;2006828;80;20276;-73
2021/05/25 12:51:52;;;;;;;1.63;0.30;;;;;;;16.94;45.28;99526.41;2006881;80;20903;-73
2021/05/25 12:55:10;;;;;;;1.00;0.30;;;;;;;16.52;43.94;99510.94;2006119;80;20284;-73
2021/05/25 12:58:13;;;;;;;1.86;0.30;;;;;;;16.36;46.37;99515.72;2007118;80;20185;-73
2021/05/25 13:04:46;;;;;;;3.96;0.52;;;;;;;15.66;45.72;99527.91;2027229;69;20231;-75
2021/05/25 13:08:08;;;;;;;4.18;0.45;;;;;;;15.41;47.57;99522.31;2006602;80;20193;-74
2021/05/25 13:11:11;;;;;;;2.99;0.50;;;;;;;15.35;47.85;99519.84;2006183;80;20246;-75
2021/05/25 13:14:18;;;;;;;2.35;0.29;;;;;;;15.46;48.28;99514.38;2007347;80;20173;-75
2021/05/25 13:17:21;;;;;;;2.05;0.39;;;;;;;15.77;48.17;99507.56;2005397;79;20221;-75
2021/05/25 13:20:26;;;;;;;1.50;0.22;;;;;;;15.95;44.99;99514.09;2006230;80;20202;-74
2021/05/25 13:23:31;;;;;;;3.22;0.40;;;;;;;16.06;44.28;99504.25;2005984;80;20207;-74
2021/05/25 13:26:38;;;;;;;3.42;0.43;;;;;;;16.07;44.81;99495.47;2005249;80;21262;-75
2021/05/25 13:29:41;;;;;;;3.72;0.40;;;;;;;16.00;45.07;99500.03;2005291;80;20173;-74
2021/05/25 13:32:44;;;;;;;1.42;0.40;;;;;;;15.85;43.33;99505.63;2005618;78;20622;-74
2021/05/25 13:35:47;;;;;;;4.65;0.40;;;;;;;15.50;44.95;99495.09;2006610;80;20201;-75
2021/05/25 13:38:49;;;;;;;2.66;0.36;;;;;;;15.20;46.86;99504.47;2005660;80;20197;-75
2021/05/25 13:41:52;;;;;;;2.03;0.40;;;;;;;14.90;45.96;99529.47;2004633;80;20226;-75
2021/05/25 13:44:55;;;;;;;2.69;0.40;;;;;;;14.54;47.05;99515.34;2006308;80;20759;-74
2021/05/25 13:47:58;;;;;;;2.05;0.45;;;;;;;14.47;48.40;99525.06;2004072;78;87696;-75
2021/05/25 13:51:01;;;;;;;3.15;0.50;;;;;;;14.54;50.04;99512.75;2006230;80;20181;-75
2021/05/25 13:54:05;;;;;;;2.31;0.40;;;;;;;14.78;50.55;99501.84;2005788;80;20185;-75
2021/05/25 13:57:15;;;;;;;3.80;0.40;;;;;;;15.07;50.56;99488.16;2005808;80;20305;-75
2021/05/25 14:00:31;;;;;;;2.19;0.43;;;;;;;15.42;49.01;99471.69;2019723;80;20225;-83
2021/05/25 14:03:34;;;;;;;4.71;0.40;;;;;;;16.05;48.88;99475.47;2012367;80;20217;-83
2021/05/25 14:06:37;;;;;;;2.89;0.49;;;;;;;16.26;45.01;99486.25;2024392;80;20180;-82
2021/05/25 14:09:40;;;;;;;3.28;0.80;;;;;;;16.28;44.11;99473.09;2015860;80;20703;-74
2021/05/25 14:12:44;;;;;;;2.17;0.40;;;;;;;16.53;43.77;99460.22;2011439;80;20295;-74
2021/05/25 14:15:47;;;;;;;2.24;0.40;;;;;;;16.91;43.83;99469.66;2014534;77;24840;-83
2021/05/25 14:18:49;;;;;;;1.51;0.30;;;;;;;17.15;41.96;99447.09;2012290;80;20714;-74
2021/05/25 14:21:52;;;;;;;2.16;0.20;;;;;;;17.12;41.16;99453.28;2012065;80;20483;-75
2021/05/25 14:24:55;;;;;;;1.14;0.25;;;;;;;16.88;41.85;99457.50;2012637;80;20638;-75
2021/05/25 14:28:00;;;;;;;3.05;0.41;;;;;;;16.90;42.55;99457.47;2011518;80;20372;-74
2021/05/25 14:31:09;;;;;;;1.67;0.30;;;;;;;17.11;41.96;99451.56;2009037;78;43713;-73
2021/05/25 14:34:12;;;;;;;2.06;0.47;;;;;;;17.64;41.48;99441.16;2006546;80;20744;-74
2021/05/25 14:37:16;;;;;;;3.47;0.77;;;;;;;17.72;39.39;99443.56;2020331;80;20173;-84
2021/05/25 14:40:22;;;;;;;1.61;0.30;;;;;;;17.98;39.74;99447.97;2017724;80;20222;-83
2021/05/25 14:43:25;;;;;;;4.96;0.40;;;;;;;18.28;38.26;99431.13;2021911;80;20199;-84
2021/05/25 14:46:28;;;;;;;1.90;0.40;;;;;;;18.14;38.28;99433.41;2019644;78;25519;-83
2021/05/25 14:49:31;;;;;;;4.60;0.32;;;;;;;18.02;38.68;99429.41;2023318;80;20710;-85
2021/05/25 14:52:35;;;;;;;2.72;0.50;;;;;;;17.88;37.07;99431.66;2018447;80;20168;-74
2021/05/25 14:55:39;;;;;;;2.88;0.40;;;;;;;17.45;38.48;99429.53;2012617;80;20192;-74
2021/05/25 14:58:45;;;;;;;2.29;0.40;;;;;;;17.09;38.82;99435.03;2012007;80;20777;-74
2021/05/25 15:02:00;;;;;;;3.22;0.40;;;;;;;16.75;38.10;99422.03;2010964;78;20974;-74